createdAt,value
2019-05-25T00:01:44.665Z,97851.61
2019-05-25T00:04:13.381Z,97852.44
2019-05-25T00:06:42.103Z,97854.66
2019-05-25T00:09:10.860Z,97852.02
2019-05-25T00:11:39.639Z,97851.56
2019-05-25T00:14:08.366Z,97846.78
2019-05-25T00:16:37.119Z,97848.52
2019-05-25T00:19:05.839Z,97846.84
2019-05-25T00:21:34.554Z,97845.13
2019-05-25T00:24:11.807Z,97844.30
2019-05-25T00:26:33.706Z,97843.34
2019-05-25T00:29:02.476Z,97845.91
2019-05-25T00:31:31.288Z,97853.74
2019-05-25T00:33:59.993Z,97858.48
2019-05-25T00:36:28.715Z,97858.06
2019-05-25T00:38:57.433Z,97862.05
2019-05-25T00:41:26.231Z,97858.47
2019-05-25T00:43:54.935Z,97859.35
2019-05-25T00:46:23.655Z,97849.73
2019-05-25T00:48:52.402Z,97856.21
2019-05-25T00:51:21.119Z,97859.66
2019-05-25T00:53:49.836Z,97854.03
2019-05-25T00:56:18.555Z,97849.59
2019-05-25T00:58:47.268Z,97856.06
2019-05-25T01:03:53.627Z,97844.06
2019-05-25T01:06:22.335Z,97844.95
2019-05-25T01:08:51.056Z,97846.31
2019-05-25T01:11:19.773Z,97852.41
2019-05-25T01:13:48.522Z,97848.66
2019-05-25T01:16:17.235Z,97848.69
2019-05-25T01:18:45.942Z,97847.34
2019-05-25T01:21:14.661Z,97844.80
2019-05-25T01:23:43.384Z,97852.63
2019-05-25T01:26:12.146Z,97845.25
2019-05-25T01:28:40.851Z,97848.73
2019-05-25T01:31:09.568Z,97852.20
2019-05-25T01:33:38.285Z,97846.58
2019-05-25T01:36:06.998Z,97848.33
2019-05-25T01:38:35.765Z,97858.80
2019-05-25T01:41:04.465Z,97861.83
2019-05-25T01:43:33.190Z,97857.52
2019-05-25T01:46:01.905Z,97862.69
2019-05-25T01:48:30.605Z,97859.30
2019-05-25T01:50:59.353Z,97862.84
2019-05-25T01:53:28.365Z,97861.97
2019-05-25T01:55:57.084Z,97860.25
2019-05-25T01:58:25.801Z,97861.14
2019-05-25T02:00:54.520Z,97866.35
2019-05-25T02:03:23.426Z,97875.90
2019-05-25T02:05:52.093Z,97872.83
2019-05-25T02:08:20.802Z,97870.27
2019-05-25T02:10:49.519Z,97869.40
2019-05-25T02:13:18.235Z,97868.98
2019-05-25T02:15:47.094Z,97875.48
2019-05-25T02:18:15.812Z,97875.48
2019-05-25T02:20:44.541Z,97870.72
2019-05-25T02:23:13.259Z,97875.05
2019-05-25T02:25:41.968Z,97872.44
2019-05-25T02:28:10.679Z,97870.27
2019-05-25T02:30:39.399Z,97872.41
2019-05-25T02:33:08.139Z,97875.88
2019-05-25T02:35:36.844Z,97873.72
2019-05-25T02:38:05.556Z,97882.39
2019-05-25T02:40:34.265Z,97885.42
2019-05-25T02:43:03.081Z,97883.27
2019-05-25T02:45:31.834Z,97894.12
2019-05-25T02:48:00.551Z,97900.22
2019-05-25T02:50:29.274Z,97895.86
2019-05-25T02:52:58.028Z,97905.42
2019-05-25T02:55:34.202Z,97911.92
2019-05-25T02:57:57.193Z,97914.54
2019-05-25T03:00:33.767Z,97918.44
2019-05-25T03:03:03.386Z,97922.34
2019-05-25T03:05:32.223Z,97925.39
2019-05-25T03:08:00.954Z,97921.88
2019-05-25T03:10:31.251Z,97926.26
2019-05-25T03:13:02.274Z,97929.70
2019-05-25T03:15:30.979Z,97930.56
2019-05-25T03:17:59.805Z,97923.62
2019-05-25T03:20:28.543Z,97927.94
2019-05-25T03:22:57.249Z,97923.56
2019-05-25T03:25:25.965Z,97925.47
2019-05-25T03:27:54.684Z,97932.20
2019-05-25T03:30:37.468Z,97925.98
2019-05-25T03:33:06.283Z,97929.58
2019-05-25T03:35:34.983Z,97931.91
2019-05-25T03:38:03.754Z,97930.31
2019-05-25T03:40:32.457Z,97936.84
2019-05-25T03:43:01.169Z,97930.33
2019-05-25T03:45:29.913Z,97928.61
2019-05-25T03:47:58.630Z,97930.34
2019-05-25T03:50:27.341Z,97922.53
2019-05-25T03:52:56.097Z,97929.00
2019-05-25T03:55:24.805Z,97920.70
2019-05-25T03:57:53.507Z,97927.55
2019-05-25T04:00:33.555Z,97924.00
2019-05-25T04:03:02.260Z,97923.47
2019-05-25T04:05:31.167Z,97932.11
2019-05-25T04:07:59.885Z,97928.83
2019-05-25T04:10:28.737Z,97925.37
2019-05-25T04:12:57.649Z,97926.44
2019-05-25T04:15:26.397Z,97924.39
2019-05-25T04:17:55.116Z,97921.02
2019-05-25T04:20:23.825Z,97922.25
2019-05-25T04:22:52.568Z,97919.84
2019-05-25T04:25:21.279Z,97919.83
2019-05-25T04:27:49.990Z,97926.33
2019-05-25T04:30:18.734Z,97924.70
2019-05-25T04:32:47.434Z,97925.50
2019-05-25T04:35:16.147Z,97933.42
2019-05-25T04:37:44.856Z,97932.69
2019-05-25T04:40:13.568Z,97939.54
2019-05-25T04:42:42.313Z,97938.88
2019-05-25T04:45:11.412Z,97942.81
2019-05-25T04:47:40.121Z,97947.16
2019-05-25T04:50:08.926Z,97945.58
2019-05-25T04:52:40.960Z,97944.61
2019-05-25T04:55:08.312Z,97955.53
2019-05-25T04:57:37.036Z,97946.75
2019-05-25T05:00:08.900Z,97947.75
2019-05-25T05:02:37.622Z,97956.33
2019-05-25T05:05:06.842Z,97955.62
2019-05-25T05:07:35.597Z,97955.59
2019-05-25T05:10:06.904Z,97955.70
2019-05-25T05:12:35.613Z,97962.80
2019-05-25T05:15:05.831Z,97950.91
2019-05-25T05:17:34.545Z,97956.63
2019-05-25T05:20:03.314Z,97960.50
2019-05-25T05:22:32.016Z,97965.91
2019-05-25T05:25:00.724Z,97967.69
2019-05-25T05:27:29.441Z,97967.81
2019-05-25T05:29:58.172Z,97971.35
2019-05-25T05:32:28.012Z,97965.72
2019-05-25T05:34:57.069Z,97969.20
2019-05-25T05:37:25.823Z,97969.20
2019-05-25T05:39:56.182Z,97978.53
2019-05-25T05:42:25.185Z,97981.61
2019-05-25T05:44:56.078Z,97984.83
2019-05-25T05:47:26.390Z,97981.32
2019-05-25T05:49:56.149Z,97995.13
2019-05-25T05:52:27.210Z,97986.74
2019-05-25T05:54:58.869Z,97997.58
2019-05-25T05:57:27.583Z,97991.70
2019-05-25T05:59:56.296Z,97987.63
2019-05-25T06:02:25.073Z,97996.68
2019-05-25T06:04:53.781Z,98004.85
2019-05-25T06:07:22.483Z,98004.41
2019-05-25T06:09:51.237Z,98009.36
2019-05-25T06:12:19.943Z,98003.84
2019-05-25T06:14:48.639Z,98008.86
2019-05-25T06:17:17.363Z,97998.08
2019-05-25T06:19:46.069Z,97999.47
2019-05-25T06:22:14.831Z,98004.27
2019-05-25T06:24:43.538Z,97991.73
2019-05-25T06:27:26.385Z,97999.68
2019-05-25T06:29:42.721Z,97993.63
2019-05-25T06:32:11.477Z,97999.62
2019-05-25T06:34:40.198Z,97993.91
2019-05-25T06:37:08.914Z,98000.59
2019-05-25T06:39:37.638Z,97994.66
2019-05-25T06:42:06.359Z,97995.31
2019-05-25T06:44:35.069Z,97991.03
2019-05-25T06:47:04.273Z,97997.47
2019-05-25T06:49:32.983Z,97993.12
2019-05-25T06:52:01.695Z,97994.89
2019-05-25T06:54:30.428Z,97991.52
2019-05-25T06:56:59.138Z,97998.69
2019-05-25T06:59:27.844Z,97994.59
2019-05-25T07:01:56.795Z,97998.07
2019-05-25T07:04:25.522Z,97996.12
2019-05-25T07:06:54.268Z,97994.36
2019-05-25T07:09:23.024Z,98000.80
2019-05-25T07:11:51.775Z,97993.05
2019-05-25T07:14:20.493Z,97996.38
2019-05-25T07:16:49.192Z,97984.80
2019-05-25T07:19:17.937Z,97986.64
2019-05-25T07:21:46.641Z,97989.06
2019-05-25T07:24:15.360Z,97987.43
2019-05-25T07:26:44.086Z,97989.69
2019-05-25T07:29:12.792Z,97992.36
2019-05-25T07:31:41.547Z,97993.91
2019-05-25T07:34:10.249Z,98009.91
2019-05-25T07:36:38.774Z,97994.45
2019-05-25T07:39:08.320Z,97997.97
2019-05-25T07:41:37.031Z,97996.80
2019-05-25T07:44:05.778Z,97982.84
2019-05-25T07:46:34.529Z,97994.63
2019-05-25T07:49:03.232Z,97995.77
2019-05-25T07:51:31.981Z,97996.92
2019-05-25T07:54:00.739Z,97989.93
2019-05-25T07:56:29.490Z,97986.20
2019-05-25T07:58:58.206Z,97991.98
2019-05-25T08:01:26.907Z,97994.45
2019-05-25T08:03:55.637Z,97982.29
2019-05-25T08:06:24.339Z,97995.96
2019-05-25T08:08:53.087Z,97999.02
2019-05-25T08:11:21.792Z,97996.75
2019-05-25T08:13:50.492Z,97998.89
2019-05-25T08:16:19.209Z,98000.28
2019-05-25T08:18:47.918Z,97997.91
2019-05-25T08:21:16.666Z,97993.77
2019-05-25T08:23:45.377Z,98005.61
2019-05-25T08:26:14.088Z,97997.03
2019-05-25T08:28:42.808Z,98005.94
2019-05-25T08:31:11.541Z,98002.89
2019-05-25T08:33:40.292Z,97998.97
2019-05-25T08:36:09.001Z,98004.88
2019-05-25T08:38:37.709Z,98008.75
2019-05-25T08:41:06.425Z,98005.23
2019-05-25T08:43:35.134Z,98009.05
2019-05-25T08:46:03.885Z,98010.89
2019-05-25T08:48:32.590Z,98015.68
2019-05-25T08:51:01.299Z,98013.60
2019-05-25T08:53:40.545Z,98012.55
2019-05-25T08:56:00.497Z,98017.94
2019-05-25T08:58:29.219Z,98011.34
2019-05-25T09:00:57.917Z,98011.14
2019-05-25T09:03:26.670Z,98014.19
2019-05-25T09:05:55.430Z,98015.42
2019-05-25T09:08:24.127Z,98011.73
2019-05-25T09:10:52.838Z,98013.98
2019-05-25T09:13:21.576Z,98016.11
2019-05-25T09:15:50.300Z,98022.06
2019-05-25T09:18:19.065Z,98012.41
2019-05-25T09:20:47.768Z,98020.83
2019-05-25T09:23:16.488Z,98015.30
2019-05-25T09:25:45.200Z,98021.34
2019-05-25T09:28:13.917Z,98025.50
2019-05-25T09:30:42.665Z,98022.79
2019-05-25T09:33:11.459Z,98021.98
2019-05-25T09:35:40.273Z,98023.27
2019-05-25T09:38:08.988Z,98015.93
2019-05-25T09:40:37.693Z,98012.83
2019-05-25T09:43:06.436Z,98015.71
2019-05-25T09:45:35.143Z,98029.06
2019-05-25T09:48:03.844Z,98034.96
2019-05-25T09:50:32.593Z,98034.73
2019-05-25T09:53:01.300Z,98037.68
2019-05-25T09:55:30.002Z,98027.20
2019-05-25T09:57:58.727Z,98035.45
2019-05-25T10:00:28.040Z,98039.73
2019-05-25T10:02:56.796Z,98038.12
2019-05-25T10:05:25.501Z,98049.15
2019-05-25T10:07:54.284Z,98038.39
2019-05-25T10:10:24.450Z,98025.20
2019-05-25T10:12:53.131Z,98036.12
2019-05-25T10:15:21.906Z,98041.27
2019-05-25T10:17:50.608Z,98030.28
2019-05-25T10:20:19.513Z,98031.72
2019-05-25T10:22:48.268Z,98031.11
2019-05-25T10:25:17.080Z,98027.74
2019-05-25T10:27:45.801Z,98024.80
2019-05-25T10:30:15.146Z,98015.73
2019-05-25T10:32:43.876Z,98026.82
2019-05-25T10:35:13.376Z,98014.52
2019-05-25T10:37:42.125Z,98019.06
2019-05-25T10:40:11.143Z,98020.11
2019-05-25T10:42:39.843Z,98011.80
2019-05-25T10:45:09.917Z,98016.26
2019-05-25T10:47:38.737Z,98009.44
2019-05-25T10:50:10.960Z,98010.25
2019-05-25T10:52:39.641Z,98002.70
2019-05-25T10:55:08.945Z,98008.26
2019-05-25T10:57:38.317Z,98004.55
2019-05-25T11:00:12.118Z,98008.28
2019-05-25T11:02:40.837Z,98004.59
2019-05-25T11:05:10.772Z,98002.63
2019-05-25T11:07:39.485Z,98006.76
2019-05-25T11:10:10.698Z,98009.25
2019-05-25T11:12:39.409Z,98005.63
2019-05-25T11:15:09.028Z,98001.84
2019-05-25T11:17:37.747Z,98002.82
2019-05-25T11:20:09.027Z,97991.08
2019-05-25T11:22:37.794Z,97991.24
2019-05-25T11:25:08.201Z,97986.08
2019-05-25T11:27:36.909Z,97987.72
2019-05-25T11:30:10.738Z,97967.89
2019-05-25T11:32:39.611Z,97987.17
2019-05-25T11:35:09.055Z,97980.87
2019-05-25T11:37:37.753Z,97988.59
2019-05-25T11:40:09.379Z,97978.29
2019-05-25T11:42:38.074Z,97982.13
2019-05-25T11:45:08.876Z,97975.36
2019-05-25T11:47:37.659Z,97971.69
2019-05-25T11:50:08.228Z,97970.36
2019-05-25T11:52:36.933Z,97967.55
2019-05-25T11:55:10.007Z,97959.66
2019-05-25T11:57:38.715Z,97962.19
2019-05-25T12:00:24.375Z,97974.84
2019-05-25T12:02:45.723Z,97974.23
2019-05-25T12:05:14.557Z,97972.59
2019-05-25T12:07:44.968Z,97977.16
2019-05-25T12:10:14.132Z,97970.48
2019-05-25T12:12:42.854Z,97974.32
2019-05-25T12:15:12.002Z,97969.28
2019-05-25T12:17:40.713Z,97968.33
2019-05-25T12:20:09.929Z,97981.09
2019-05-25T12:22:38.644Z,97969.75
2019-05-25T12:25:08.161Z,97985.52
2019-05-25T12:27:36.938Z,97972.13
2019-05-25T12:30:08.983Z,97971.13
2019-05-25T12:32:37.682Z,97970.76
2019-05-25T12:35:08.340Z,97973.77
2019-05-25T12:37:37.045Z,97968.75
2019-05-25T12:40:09.008Z,97968.52
2019-05-25T12:42:37.730Z,97974.14
2019-05-25T12:45:07.735Z,97965.59
2019-05-25T12:47:36.705Z,97966.36
2019-05-25T12:50:09.431Z,97972.92
2019-05-25T12:52:38.151Z,97972.62
2019-05-25T12:55:07.555Z,97978.59
2019-05-25T12:57:36.264Z,97971.89
2019-05-25T13:00:15.389Z,97978.81
2019-05-25T13:02:37.550Z,97967.57
2019-05-25T13:05:07.790Z,97973.20
2019-05-25T13:07:36.535Z,97977.01
2019-05-25T13:10:08.928Z,97975.93
2019-05-25T13:12:37.652Z,97984.70
2019-05-25T13:15:07.151Z,97984.20
2019-05-25T13:17:35.906Z,97989.69
2019-05-25T13:20:08.130Z,97981.35
2019-05-25T13:22:36.830Z,97993.38
2019-05-25T13:25:07.320Z,97978.42
2019-05-25T13:27:36.024Z,97986.10
2019-05-25T13:30:09.180Z,97983.91
2019-05-25T13:32:37.882Z,97983.91
2019-05-25T13:35:07.684Z,97990.41
2019-05-25T13:37:36.403Z,97985.62
2019-05-25T13:40:06.985Z,97975.31
2019-05-25T13:42:35.736Z,97978.95
2019-05-25T13:45:06.785Z,97975.38
2019-05-25T13:47:35.480Z,97975.38
2019-05-25T13:50:07.619Z,97980.17
2019-05-25T13:52:36.331Z,97966.77
2019-05-25T13:55:06.079Z,97973.53
2019-05-25T13:57:34.766Z,97978.31
2019-05-25T14:00:04.073Z,97966.28
2019-05-25T14:02:32.831Z,97979.30
2019-05-25T14:05:01.565Z,97979.22
2019-05-25T14:07:30.255Z,97984.72
2019-05-25T14:09:58.969Z,97993.34
2019-05-25T14:12:27.669Z,97992.77
2019-05-25T14:14:56.411Z,97981.64
2019-05-25T14:17:25.115Z,97985.31
2019-05-25T14:19:53.924Z,97976.47
2019-05-25T14:22:22.646Z,97989.08
2019-05-25T14:24:51.355Z,97992.11
2019-05-25T14:27:20.212Z,97993.20
2019-05-25T14:29:48.911Z,97992.41
2019-05-25T14:32:17.623Z,97987.58
2019-05-25T14:34:46.333Z,97986.39
2019-05-25T14:37:15.035Z,97989.78
2019-05-25T14:39:43.796Z,97991.77
2019-05-25T14:42:12.511Z,97992.71
2019-05-25T14:44:41.213Z,97988.84
2019-05-25T14:47:09.972Z,97993.69
2019-05-25T14:49:38.669Z,97998.54
2019-05-25T14:52:07.418Z,97996.76
2019-05-25T14:54:36.178Z,97995.20
2019-05-25T14:57:04.885Z,98011.73
2019-05-25T14:59:33.772Z,98010.45
2019-05-25T15:02:03.807Z,98013.30
2019-05-25T15:04:32.701Z,98016.34
2019-05-25T15:07:01.529Z,98019.34
2019-05-25T15:09:30.245Z,98018.89
2019-05-25T15:11:58.962Z,98015.52
2019-05-25T15:14:27.672Z,98009.05
2019-05-25T15:16:56.384Z,98013.69
2019-05-25T15:19:25.147Z,98015.42
2019-05-25T15:21:54.207Z,98014.94
2019-05-25T15:24:23.346Z,98012.37
2019-05-25T15:26:52.091Z,98013.69
2019-05-25T15:29:20.796Z,98017.80
2019-05-25T15:31:49.503Z,98017.92
2019-05-25T15:34:18.219Z,98020.01
2019-05-25T15:36:46.928Z,98014.59
2019-05-25T15:39:15.694Z,98012.92
2019-05-25T15:41:44.404Z,98016.45
2019-05-25T15:44:13.109Z,98017.77
2019-05-25T15:46:41.846Z,98011.87
2019-05-25T15:49:10.539Z,98011.91
2019-05-25T15:51:39.290Z,98015.64
2019-05-25T15:54:10.574Z,98020.94
2019-05-25T15:56:38.502Z,98016.53
2019-05-25T15:59:07.251Z,98020.08
2019-05-25T16:01:35.952Z,98015.30
2019-05-25T16:04:04.770Z,98021.45
2019-05-25T16:06:33.617Z,98016.90
2019-05-25T16:09:02.402Z,98018.02
2019-05-25T16:11:32.273Z,98022.14
2019-05-25T16:14:01.428Z,98021.89
2019-05-25T16:16:30.500Z,98032.45
2019-05-25T16:18:59.241Z,98023.77
2019-05-25T16:21:27.954Z,98026.62
2019-05-25T16:23:56.678Z,98030.57
2019-05-25T16:26:25.394Z,98033.86
2019-05-25T16:28:54.105Z,98043.17
2019-05-25T16:31:22.872Z,98042.63
2019-05-25T16:33:51.580Z,98050.48
2019-05-25T16:36:20.293Z,98035.10
2019-05-25T16:38:49.059Z,98035.10
2019-05-25T16:41:17.773Z,98048.59
2019-05-25T16:43:46.682Z,98048.63
2019-05-25T16:46:15.433Z,98051.89
2019-05-25T16:48:44.191Z,98054.30
2019-05-25T16:51:12.940Z,98053.23
2019-05-25T16:53:41.645Z,98052.48
2019-05-25T16:56:10.357Z,98052.92
2019-05-25T16:58:39.067Z,98052.34
2019-05-25T17:01:07.774Z,98057.53
2019-05-25T17:03:36.526Z,98052.84
2019-05-25T17:06:05.232Z,98053.34
2019-05-25T17:08:33.996Z,98062.57
2019-05-25T17:11:03.994Z,98063.78
2019-05-25T17:13:33.082Z,98072.19
2019-05-25T17:16:01.847Z,98073.53
2019-05-25T17:18:30.560Z,98067.14
2019-05-25T17:20:59.276Z,98071.25
2019-05-25T17:23:28.029Z,98074.06
2019-05-25T17:25:56.775Z,98071.11
2019-05-25T17:28:25.447Z,98064.25
2019-05-25T17:30:54.169Z,98068.98
2019-05-25T17:33:22.888Z,98072.95
2019-05-25T17:35:51.622Z,98070.94
2019-05-25T17:38:20.338Z,98066.11
2019-05-25T17:40:49.072Z,98071.76
2019-05-25T17:43:17.785Z,98074.39
2019-05-25T17:45:46.492Z,98071.28
2019-05-25T17:48:15.203Z,98076.39
2019-05-25T17:50:43.940Z,98077.95
2019-05-25T17:53:12.632Z,98075.00
2019-05-25T17:55:41.353Z,98075.63
2019-05-25T17:58:10.116Z,98075.93
2019-05-25T18:00:47.818Z,98076.85
2019-05-25T18:03:16.526Z,98072.90
2019-05-25T18:05:45.824Z,98057.10
2019-05-25T18:08:14.518Z,98075.19
2019-05-25T18:10:52.642Z,98082.27
2019-05-25T18:13:13.672Z,98082.59
2019-05-25T18:15:42.386Z,98086.70
2019-05-25T18:18:11.132Z,98092.02
2019-05-25T18:20:39.848Z,98095.75
2019-05-25T18:23:08.553Z,98096.42
2019-05-25T18:25:37.328Z,98099.59
2019-05-25T18:28:06.222Z,98099.59
2019-05-25T18:30:35.023Z,98108.19
2019-05-25T18:33:03.832Z,98106.75
2019-05-25T18:35:32.536Z,98090.66
2019-05-25T18:38:01.284Z,98115.95
2019-05-25T18:40:30.027Z,98110.69
2019-05-25T18:42:58.730Z,98117.94
2019-05-25T18:45:27.438Z,98127.64
2019-05-25T18:47:56.142Z,98132.12
2019-05-25T18:50:24.883Z,98128.73
2019-05-25T18:52:53.589Z,98139.27
2019-05-25T18:55:22.488Z,98141.95
2019-05-25T18:57:51.235Z,98125.03
2019-05-25T19:00:20.613Z,98149.97
2019-05-25T19:02:49.271Z,98153.05
2019-05-25T19:05:18.296Z,98157.64
2019-05-25T19:07:47.004Z,98163.19
2019-05-25T19:10:16.245Z,98163.23
2019-05-25T19:12:44.955Z,98173.44
2019-05-25T19:15:14.256Z,98173.44
2019-05-25T19:17:42.996Z,98182.73
2019-05-25T19:20:20.030Z,98192.24
2019-05-25T19:22:44.147Z,98192.19
2019-05-25T19:25:14.172Z,98196.46
2019-05-25T19:27:43.370Z,98196.06
2019-05-25T19:30:12.775Z,98193.91
2019-05-25T19:32:41.471Z,98198.30
2019-05-25T19:35:12.463Z,98200.77
2019-05-25T19:37:42.505Z,98196.10
2019-05-25T19:40:12.060Z,98204.91
2019-05-25T19:42:40.807Z,98197.34
2019-05-25T19:45:10.444Z,98202.17
2019-05-25T19:47:39.158Z,98210.00
2019-05-25T19:50:11.326Z,98200.89
2019-05-25T19:52:40.037Z,98194.53
2019-05-25T19:55:09.101Z,98197.16
2019-05-25T19:57:37.814Z,98197.63
2019-05-25T20:00:07.723Z,98203.73
2019-05-25T20:02:36.446Z,98206.70
2019-05-25T20:07:35.957Z,98205.30
2019-05-25T20:10:06.704Z,98209.25
2019-05-25T20:12:35.421Z,98210.59
2019-05-25T20:15:05.807Z,98208.50
2019-05-25T20:17:34.525Z,98209.28
2019-05-25T20:20:03.294Z,98202.23
2019-05-25T20:22:32.009Z,98210.69
2019-05-25T20:25:00.710Z,98207.09
2019-05-25T20:27:29.426Z,98218.59
2019-05-25T20:29:58.139Z,98217.20
2019-05-25T20:32:26.892Z,98225.76
2019-05-25T20:34:55.610Z,98224.91
2019-05-25T20:37:24.321Z,98226.04
2019-05-25T20:39:53.075Z,98223.16
2019-05-25T20:42:21.790Z,98228.98
2019-05-25T20:44:50.842Z,98228.60
2019-05-25T20:47:19.554Z,98230.67
2019-05-25T20:49:48.275Z,98231.35
2019-05-25T20:52:17.022Z,98229.24
2019-05-25T20:54:45.736Z,98230.27
2019-05-25T20:57:14.431Z,98225.83
2019-05-25T20:59:43.138Z,98227.91
2019-05-25T21:02:11.852Z,98229.73
2019-05-25T21:04:40.595Z,98237.22
2019-05-25T21:07:09.297Z,98243.33
2019-05-25T21:09:38.008Z,98247.27
2019-05-25T21:12:06.846Z,98246.56
2019-05-25T21:14:35.607Z,98253.48
2019-05-25T21:17:04.319Z,98253.55
2019-05-25T21:19:33.033Z,98248.70
2019-05-25T21:22:01.740Z,98249.48
2019-05-25T21:24:30.494Z,98250.17
2019-05-25T21:26:59.193Z,98250.31
2019-05-25T21:29:27.927Z,98253.79
2019-05-25T21:31:56.646Z,98257.07
2019-05-25T21:34:25.360Z,98257.84
2019-05-25T21:36:54.106Z,98252.55
2019-05-25T21:39:22.815Z,98250.70
2019-05-25T21:41:51.528Z,98252.84
2019-05-25T21:44:20.276Z,98253.64
2019-05-25T21:46:48.983Z,98257.17
2019-05-25T21:49:17.714Z,98251.62
2019-05-25T21:51:46.411Z,98249.03
2019-05-25T21:54:15.120Z,98250.83
2019-05-25T21:56:43.883Z,98255.05
2019-05-25T21:59:12.585Z,98255.47
2019-05-25T22:01:41.296Z,98257.17
2019-05-25T22:04:09.996Z,98248.17
2019-05-25T22:06:38.703Z,98253.09
2019-05-25T22:09:08.341Z,98249.27
2019-05-25T22:11:37.557Z,98250.08
2019-05-25T22:14:06.273Z,98247.95
2019-05-25T22:16:34.998Z,98245.77
2019-05-25T22:19:03.705Z,98244.38
2019-05-25T22:21:32.408Z,98243.80
2019-05-25T22:24:01.122Z,98239.41
2019-05-25T22:26:29.844Z,98240.75
2019-05-25T22:28:58.564Z,98245.64
2019-05-25T22:31:27.282Z,98246.03
2019-05-25T22:33:59.211Z,98254.13
2019-05-25T22:36:39.143Z,98251.06
2019-05-25T22:38:56.896Z,98247.16
2019-05-25T22:41:25.607Z,98246.25
2019-05-25T22:43:54.317Z,98244.16
2019-05-25T22:46:23.031Z,98243.66
2019-05-25T22:48:51.767Z,98244.12
2019-05-25T22:51:20.470Z,98240.67
2019-05-25T22:53:49.176Z,98241.13
2019-05-25T22:56:17.895Z,98245.94
2019-05-25T22:58:46.604Z,98243.30
2019-05-25T23:01:15.363Z,98246.08
2019-05-25T23:03:44.067Z,98256.98
2019-05-25T23:06:12.774Z,98258.30
2019-05-25T23:08:41.564Z,98254.66
2019-05-25T23:11:10.266Z,98246.45
2019-05-25T23:13:38.975Z,98242.90
2019-05-25T23:16:09.288Z,98250.89
2019-05-25T23:18:37.987Z,98250.07
2019-05-25T23:21:06.692Z,98254.52
2019-05-25T23:23:35.403Z,98265.05
2019-05-25T23:26:04.121Z,98258.08
2019-05-25T23:28:32.851Z,98263.83
2019-05-25T23:31:01.551Z,98258.98
2019-05-25T23:33:30.258Z,98260.30
2019-05-25T23:35:59.012Z,98256.39
2019-05-25T23:38:27.727Z,98259.91
2019-05-25T23:40:56.439Z,98255.19
2019-05-25T23:43:25.140Z,98257.02
2019-05-25T23:45:53.850Z,98259.87
2019-05-25T23:48:22.596Z,98260.73
2019-05-25T23:50:51.291Z,98264.02
2019-05-25T23:53:20.002Z,98264.16
2019-05-25T23:55:48.758Z,98263.66
2019-05-25T23:58:17.464Z,98256.28
